Main page
METAR-TAF:

METAR-TAF

Airports :

Teslin Airport

Teslin, Yukon, Canada

latitude: 60-10N, longitude: 132-44W, elevation: 711 m

Current weather observation

The report was made 9 hours and 18 minutes ago, at 00:00 UTC
Wind 10 kt from the West with gusts up to 16 kt
Temperature 15°C
Humidity 27%
Pressure 1016 hPa
Visibility: 48.3 km
Overcast at a height of 8000 ft

METAR: CYZW 220000Z 26010G16KT 30SM OVC080 15/M04 A3000 RMK AC8 LAST STFD OBS/NXT 221600Z SLP184 DENSITY ALT 2700FT

Time: 02:18 (09:18 UTC)

Forecast

The report was made 15 hours and 38 minutes ago, at 17:40 UTC
Forecast valid from 21 at 18 UTC to 21 at 24 UTC
Wind 12 kt from the West/Northwest
Visibility: 10 km
Few clouds at a height of 4000 ft

TAF: CYZW 211740Z 2118/2124 29012KT P6SM FEW040 RMK NXT FCST BY 221800Z

Weather observations and forecasts of more than 4000 airports (METAR and TAF reports).

The available stations are represented by yellow and red dots on the map.

Hover mouse over dot to see the name of the station.

Then click to see weather observations and forecasts.

To change the map : click on the green buttons with a black cross to zoom in, on the green button with a dash to zoom out, or on the green arrows for adjacent maps.


METAR-TAF: